Atlantic Elm — 9HA3054 — position and weather

sailwx.info

Track history (hours):
 
Tides and Currents Weather Stations Pressure Air Temp Water Temp Dewpoint Dewpoint Depression Visibility Wind Speed Wind Dir Waves Ship Positions

Atlantic Elm

Last reported at 2016-Jul-05 13:33 UTC. Time now 2016-Jul-31 03:37 UTC.
Position N 35°59' W 005°31'.
Warning: this ship's position is 25 days out of date.

Length 190 m; draft 9.2 m.

Type: Ship (hazmat cat A). MMSI: 229081000.

Date/timePositionNaut miles runAvg speedWind from/ knotsBaromVisibWave heightAir tempDewpointWater temp
2016-Jul-05 13:33N 35°59' W 005°31'1010.1
2016-Jul-05 12:34N 36°06' W 005°23'1 1.4
2016-Jul-05 11:32N 36°08' W 005°22'0 0.1
2016-Jul-05 10:29N 36°07' W 005°22'0 0.1
2016-Jul-05 09:32N 36°07' W 005°22'0 0.0
2016-Jul-05 08:32N 36°07' W 005°22'0 0.0
2016-Jul-05 07:32N 36°07' W 005°22'0 0.1
2016-Jul-05 04:32N 36°07' W 005°22'0 0.1
2016-Jul-05 03:32N 36°08' W 005°22'0 0.3
2016-Jul-05 02:33N 36°07' W 005°22'4 4.4
2016-Jul-05 01:34N 36°04' W 005°19'22211.5
2016-Jul-04 06:10N 36°33' W 000°46'6011.8
2016-Jul-04 01:06N 36°48' E 000°26'712.4
2016-Jul-04 00:33N 36°50' E 000°35'1313.0
2016-Jul-03 23:33N 36°53' E 000°50'1313.2
2016-Jul-03 22:33N 36°55' E 001°07'1313.0
2016-Jul-03 21:33N 36°58' E 001°22'1313.3
2016-Jul-03 20:33N 37°01' E 001°38'1312.6
2016-Jul-03 19:33N 37°04' E 001°54'1212.4
2016-Jul-03 18:33N 37°07' E 002°09'1312.7
2016-Jul-03 17:31N 37°10' E 002°25'1212.6
2016-Jul-03 16:33N 37°13' E 002°40'1312.9
2016-Jul-03 15:33N 37°16' E 002°55'1312.8
2016-Jul-03 14:33N 37°16' E 003°11'1612.7
2016-Jul-03 13:16N 37°19' E 003°32'913.3
2016-Jul-03 12:33N 37°19' E 003°44'1913.3
2016-Jul-03 11:06N 37°20' E 004°08'7 8.4
2016-Jul-03 10:18N 37°20' E 003°60'1213.3
2016-Jul-03 09:23N 37°21' E 004°15'1112.9
2016-Jul-03 08:33N 37°22' E 004°28'3013.3
2016-Jul-03 06:18N 37°20' E 005°06'2413.6
2016-Jul-03 04:33N 37°21' E 005°36'1413.8
2016-Jul-03 03:33N 37°22' E 005°53'1313.4
2016-Jul-03 02:33N 37°24' E 006°10'3012.6
2016-Jul-03 00:09N 37°28' E 006°48'9712.8
2016-Jul-02 16:32N 37°38' E 008°50'1212.4
2016-Jul-02 15:33N 37°39' E 009°05'1312.1
2016-Jul-02 14:29N 37°39' E 009°21'5510.6
2016-Jul-02 09:16N 37°41' E 010°31'911.8
2016-Jul-02 08:31N 37°40' E 010°42'1512.0
2016-Jul-02 07:17N 37°33' E 010°59'1512.6
2016-Jul-02 06:06N 37°26' E 011°15'1912.1
2016-Jul-02 04:33N 37°16' E 011°35'1212.5
2016-Jul-02 03:33N 37°09' E 011°48'1312.9
2016-Jul-02 02:33N 37°03' E 012°02'1313.1
2016-Jul-02 01:33N 36°59' E 012°18'1312.9
2016-Jul-02 00:33N 36°55' E 012°34'1313.1
2016-Jul-01 23:33N 36°51' E 012°49'1313.3
2016-Jul-01 22:33N 36°47' E 013°05'1313.0
2016-Jul-01 21:33N 36°42' E 013°20'1312.8
2016-Jul-01 20:33N 36°38' E 013°35'1312.9
2016-Jul-01 19:33N 36°35' E 013°50'1312.9
2016-Jul-01 18:33N 36°30' E 014°06'6 6.1
2016-Jul-01 17:33N 36°27' E 014°12'7 7.0
2016-Jul-01 16:33N 36°26' E 014°21'1313.1
2016-Jul-01 15:33N 36°22' E 014°36'1313.0
2016-Jul-01 14:33N 36°19' E 014°52'1313.1
2016-Jul-01 13:33N 36°16' E 015°08'1312.9
2016-Jul-01 12:33N 36°13' E 015°24'1313.2
2016-Jul-01 11:33N 36°11' E 015°40'1313.5
2016-Jul-01 10:33N 36°07' E 015°56'1313.4
2016-Jul-01 09:33N 36°04' E 016°12'1313.1
2016-Jul-01 08:33N 36°01' E 016°28'1312.9
2016-Jul-01 07:33N 35°58' E 016°43'1312.9
2016-Jul-01 06:33N 35°56' E 016°59'11612.9
2016-Jun-30 21:33N 35°30' E 019°18'1313.2
2016-Jun-30 20:33N 35°27' E 019°33'1313.4
2016-Jun-30 19:33N 35°24' E 019°50'1313.3
2016-Jun-30 18:34N 35°21' E 020°05'6 5.5
2016-Jun-30 17:33N 35°20' E 020°12'8613.4
2016-Jun-30 11:07N 35°00' E 021°55'713.1
2016-Jun-30 10:33N 34°59' E 022°03'1313.1
2016-Jun-30 09:33N 34°56' E 022°19'1412.9
2016-Jun-30 08:27N 34°52' E 022°36'1212.9
2016-Jun-30 07:33N 34°50' E 022°50'  
2016-Jun-25 16:32N 36°50' E 035°54'  
Track history (hours):
 
Tides and Currents Weather Stations Pressure Air Temp Water Temp Dewpoint Dewpoint Depression Visibility Wind Speed Wind Dir Waves Ship Positions

Atlantic Elm

Last reported at 2016-Jul-05 13:33 UTC. Time now 2016-Jul-31 03:37 UTC.
Position N 35°59' W 005°31'.
Warning: this ship's position is 25 days out of date.

Length 190 m; draft 9.2 m.

Type: Ship (hazmat cat A). MMSI: 229081000.

Date/timePositionNaut miles runAvg speedWind from/ knotsBaromVisibWave heightAir tempDewpointWater temp
2016-Jul-05 13:33N 35°59' W 005°31'1010.1
2016-Jul-05 12:34N 36°06' W 005°23'1 1.4
2016-Jul-05 11:32N 36°08' W 005°22'0 0.1
2016-Jul-05 10:29N 36°07' W 005°22'0 0.1
2016-Jul-05 09:32N 36°07' W 005°22'0 0.0
2016-Jul-05 08:32N 36°07' W 005°22'0 0.0
2016-Jul-05 07:32N 36°07' W 005°22'0 0.1
2016-Jul-05 04:32N 36°07' W 005°22'0 0.1
2016-Jul-05 03:32N 36°08' W 005°22'0 0.3
2016-Jul-05 02:33N 36°07' W 005°22'4 4.4
2016-Jul-05 01:34N 36°04' W 005°19'22211.5
2016-Jul-04 06:10N 36°33' W 000°46'6011.8
2016-Jul-04 01:06N 36°48' E 000°26'712.4
2016-Jul-04 00:33N 36°50' E 000°35'1313.0
2016-Jul-03 23:33N 36°53' E 000°50'1313.2
2016-Jul-03 22:33N 36°55' E 001°07'1313.0
2016-Jul-03 21:33N 36°58' E 001°22'1313.3
2016-Jul-03 20:33N 37°01' E 001°38'1312.6
2016-Jul-03 19:33N 37°04' E 001°54'1212.4
2016-Jul-03 18:33N 37°07' E 002°09'1312.7
2016-Jul-03 17:31N 37°10' E 002°25'1212.6
2016-Jul-03 16:33N 37°13' E 002°40'1312.9
2016-Jul-03 15:33N 37°16' E 002°55'1312.8
2016-Jul-03 14:33N 37°16' E 003°11'1612.7
2016-Jul-03 13:16N 37°19' E 003°32'913.3
2016-Jul-03 12:33N 37°19' E 003°44'1913.3
2016-Jul-03 11:06N 37°20' E 004°08'7 8.4
2016-Jul-03 10:18N 37°20' E 003°60'1213.3
2016-Jul-03 09:23N 37°21' E 004°15'1112.9
2016-Jul-03 08:33N 37°22' E 004°28'3013.3
2016-Jul-03 06:18N 37°20' E 005°06'2413.6
2016-Jul-03 04:33N 37°21' E 005°36'1413.8
2016-Jul-03 03:33N 37°22' E 005°53'1313.4
2016-Jul-03 02:33N 37°24' E 006°10'3012.6
2016-Jul-03 00:09N 37°28' E 006°48'9712.8
2016-Jul-02 16:32N 37°38' E 008°50'1212.4
2016-Jul-02 15:33N 37°39' E 009°05'1312.1
2016-Jul-02 14:29N 37°39' E 009°21'5510.6
2016-Jul-02 09:16N 37°41' E 010°31'911.8
2016-Jul-02 08:31N 37°40' E 010°42'1512.0
2016-Jul-02 07:17N 37°33' E 010°59'1512.6
2016-Jul-02 06:06N 37°26' E 011°15'1912.1
2016-Jul-02 04:33N 37°16' E 011°35'1212.5
2016-Jul-02 03:33N 37°09' E 011°48'1312.9
2016-Jul-02 02:33N 37°03' E 012°02'1313.1
2016-Jul-02 01:33N 36°59' E 012°18'1312.9
2016-Jul-02 00:33N 36°55' E 012°34'1313.1
2016-Jul-01 23:33N 36°51' E 012°49'1313.3
2016-Jul-01 22:33N 36°47' E 013°05'1313.0
2016-Jul-01 21:33N 36°42' E 013°20'1312.8
2016-Jul-01 20:33N 36°38' E 013°35'1312.9
2016-Jul-01 19:33N 36°35' E 013°50'1312.9
2016-Jul-01 18:33N 36°30' E 014°06'6 6.1
2016-Jul-01 17:33N 36°27' E 014°12'7 7.0
2016-Jul-01 16:33N 36°26' E 014°21'1313.1
2016-Jul-01 15:33N 36°22' E 014°36'1313.0
2016-Jul-01 14:33N 36°19' E 014°52'1313.1
2016-Jul-01 13:33N 36°16' E 015°08'1312.9
2016-Jul-01 12:33N 36°13' E 015°24'1313.2
2016-Jul-01 11:33N 36°11' E 015°40'1313.5
2016-Jul-01 10:33N 36°07' E 015°56'1313.4
2016-Jul-01 09:33N 36°04' E 016°12'1313.1
2016-Jul-01 08:33N 36°01' E 016°28'1312.9
2016-Jul-01 07:33N 35°58' E 016°43'1312.9
2016-Jul-01 06:33N 35°56' E 016°59'11612.9
2016-Jun-30 21:33N 35°30' E 019°18'1313.2
2016-Jun-30 20:33N 35°27' E 019°33'1313.4
2016-Jun-30 19:33N 35°24' E 019°50'1313.3
2016-Jun-30 18:34N 35°21' E 020°05'6 5.5
2016-Jun-30 17:33N 35°20' E 020°12'8613.4
2016-Jun-30 11:07N 35°00' E 021°55'713.1
2016-Jun-30 10:33N 34°59' E 022°03'1313.1
2016-Jun-30 09:33N 34°56' E 022°19'1412.9
2016-Jun-30 08:27N 34°52' E 022°36'1212.9
2016-Jun-30 07:33N 34°50' E 022°50'  
2016-Jun-25 16:32N 36°50' E 035°54'  

Dump ship's entire track history